Terminal Aerodrome Forecast
Issued by NWS Cleveland, OH

Home | Current Version | Previous Version | Graphics & Text | Print | Product List | Glossary Off
Versions: 1 2 3 4 5 6 7 8 9 10 11 12 13 14 15 16 17 18 19 20 21 22 23 24 25 26 27 28 29 30 31 32

000
FTUS41 KCLE 012000 AAB
TAFCLE
TAF AMD
KCLE 012047Z 0121/0224 36006KT P6SM FEW035 BKN050
     FM020300 14003KT P6SM SKC
      TEMPO 0209/0213 4SM BR
     FM021600 16007KT P6SM BKN250=

USA.gov is the U.S. government's official web portal to all federal, state and local government web resources and services.